Time;durP1;ratioP1;P1;durP2;ratioP2;P2;SDS_P1;SDS_P2;PMS_P1;PMS_P2;Temp;Humidity;BMP_temperature;BMP_pressure;BME280_temperature;BME280_humidity;BME280_pressure;Samples;Min_cycle;Max_cycle;Signal;HPM_P1;HPM_P2
2022/01/08 00:01:16;;;;;;;5.60;3.30;;;5.00;99.90;;;;;;4162945;28;20104;-69
2022/01/08 00:03:17;;;;;;;7.88;3.88;;;5.00;99.90;;;;;;4162567;28;20545;-69
2022/01/08 00:05:18;;;;;;;5.75;3.38;;;5.10;99.90;;;;;;4162842;28;20065;-68
2022/01/08 00:07:19;;;;;;;7.47;3.65;;;5.10;99.90;;;;;;4164194;28;20045;-68
2022/01/08 00:09:20;;;;;;;5.82;3.05;;;5.10;99.90;;;;;;4161686;28;20143;-68
2022/01/08 00:11:24;;;;;;;6.72;3.53;;;5.10;99.90;;;;;;4160661;28;20038;-68
2022/01/08 00:13:25;;;;;;;6.80;3.72;;;5.10;99.90;;;;;;4159328;28;20555;-68
2022/01/08 00:15:25;;;;;;;6.25;3.80;;;5.10;99.90;;;;;;4161769;28;20045;-68
2022/01/08 00:17:26;;;;;;;6.10;3.65;;;5.10;99.90;;;;;;4161598;28;20065;-68
2022/01/08 00:19:27;;;;;;;6.80;3.67;;;5.10;99.90;;;;;;4162257;28;20809;-68
2022/01/08 00:21:27;;;;;;;8.73;4.38;;;5.10;99.90;;;;;;4164113;28;20064;-68
2022/01/08 00:23:29;;;;;;;6.15;3.92;;;5.10;99.90;;;;;;4161139;28;20064;-68
2022/01/08 00:25:30;;;;;;;8.15;3.97;;;5.10;99.90;;;;;;4146226;28;20049;-68
2022/01/08 00:27:31;;;;;;;8.85;4.13;;;5.10;99.90;;;;;;4161394;28;20041;-68
2022/01/08 00:29:31;;;;;;;6.13;3.10;;;5.10;99.90;;;;;;4164831;28;20041;-68
2022/01/08 00:31:32;;;;;;;8.07;3.60;;;5.10;99.90;;;;;;4163089;28;20521;-68
2022/01/08 00:33:33;;;;;;;7.75;3.50;;;5.10;99.90;;;;;;4162770;28;20041;-68
2022/01/08 00:35:33;;;;;;;5.32;3.20;;;5.10;99.90;;;;;;4161031;28;20092;-68
2022/01/08 00:37:37;;;;;;;5.70;3.65;;;5.10;99.90;;;;;;4161559;28;20116;-68
2022/01/08 00:39:37;;;;;;;5.97;3.28;;;5.10;99.90;;;;;;4162142;28;20045;-68
2022/01/08 00:41:38;;;;;;;4.30;2.67;;;5.10;99.90;;;;;;4163449;28;20037;-68
2022/01/08 00:43:39;;;;;;;4.53;3.20;;;5.10;99.90;;;;;;4162681;28;20112;-68
2022/01/08 00:45:39;;;;;;;6.85;3.03;;;5.10;99.90;;;;;;4163163;28;20176;-68
2022/01/08 00:47:40;;;;;;;5.90;3.20;;;5.00;99.90;;;;;;4162892;28;20061;-68
2022/01/08 00:49:40;;;;;;;6.97;3.35;;;5.00;99.90;;;;;;4162507;28;20080;-68
2022/01/08 00:51:41;;;;;;;5.07;3.28;;;5.00;99.90;;;;;;4163198;28;20040;-68
2022/01/08 00:53:42;;;;;;;6.90;3.40;;;5.00;99.90;;;;;;4163934;28;20489;-68
2022/01/08 00:55:42;;;;;;;6.10;3.10;;;4.90;99.90;;;;;;4162357;28;20034;-68
2022/01/08 00:57:43;;;;;;;7.45;3.63;;;4.90;99.90;;;;;;4163512;28;20056;-68
2022/01/08 00:59:44;;;;;;;6.70;3.78;;;4.90;99.90;;;;;;4163895;28;20037;-68
2022/01/08 01:01:44;;;;;;;7.82;3.58;;;4.90;99.90;;;;;;4159792;28;20099;-68
2022/01/08 01:03:45;;;;;;;5.07;3.00;;;4.90;99.90;;;;;;4162992;28;20029;-68
2022/01/08 01:05:46;;;;;;;4.55;2.63;;;4.90;99.90;;;;;;4163423;28;20041;-69
2022/01/08 01:07:46;;;;;;;6.95;3.08;;;4.80;99.90;;;;;;4160100;28;20053;-69
2022/01/08 01:09:47;;;;;;;6.05;2.75;;;4.80;99.90;;;;;;4162148;28;20049;-69
2022/01/08 01:11:48;;;;;;;4.28;2.92;;;4.70;99.90;;;;;;4162378;28;20600;-70
2022/01/08 01:13:49;;;;;;;5.88;3.28;;;4.70;99.90;;;;;;4164664;28;20048;-69
2022/01/08 01:15:49;;;;;;;5.10;3.30;;;4.70;99.90;;;;;;4162517;28;20449;-68
2022/01/08 01:17:50;;;;;;;5.43;3.00;;;4.70;99.90;;;;;;4165297;28;20040;-70
2022/01/08 01:19:50;;;;;;;7.25;3.25;;;4.70;99.90;;;;;;4162916;28;20453;-69
2022/01/08 01:21:54;;;;;;;7.70;3.95;;;4.60;99.90;;;;;;4162773;28;20095;-69
2022/01/08 01:23:55;;;;;;;6.57;3.40;;;4.60;99.90;;;;;;4162479;28;20064;-69
2022/01/08 01:26:00;;;;;;;6.93;3.55;;;4.60;99.90;;;;;;4163089;28;20037;-69
2022/01/08 01:30:17;;;;;;;6.88;3.63;;;4.60;99.90;;;;;;4162334;28;20132;-69
2022/01/08 01:48:22;;;;;;;6.50;3.50;;;4.30;99.90;;;;;;4162726;28;20026;-69
2022/01/08 01:50:23;;;;;;;6.95;3.30;;;4.30;99.90;;;;;;4164254;28;20083;-69
2022/01/08 01:52:23;;;;;;;6.10;3.80;;;4.30;99.90;;;;;;4163755;28;20447;-69
2022/01/08 01:54:25;;;;;;;7.05;3.70;;;4.30;99.90;;;;;;4165287;28;20496;-69
2022/01/08 01:56:25;;;;;;;7.32;3.90;;;4.30;99.90;;;;;;4163800;28;20116;-69
2022/01/08 01:58:26;;;;;;;9.10;3.60;;;4.30;99.90;;;;;;4164872;28;20096;-69
2022/01/08 02:00:27;;;;;;;5.20;3.40;;;4.30;99.90;;;;;;4160868;28;20029;-69
2022/01/08 02:02:27;;;;;;;6.05;4.15;;;4.30;99.90;;;;;;4164949;28;20064;-68
2022/01/08 02:04:28;;;;;;;8.68;4.25;;;4.20;99.90;;;;;;4163604;28;20052;-69
2022/01/08 02:06:28;;;;;;;6.47;3.80;;;4.30;99.90;;;;;;4162647;28;20072;-70
2022/01/08 02:08:29;;;;;;;7.72;4.32;;;4.20;99.90;;;;;;4162582;28;20432;-69
2022/01/08 02:10:31;;;;;;;7.80;4.32;;;4.30;99.90;;;;;;4160751;28;20132;-69
2022/01/08 02:12:33;;;;;;;7.75;4.30;;;4.30;99.90;;;;;;4162672;28;20388;-69
2022/01/08 02:14:36;;;;;;;10.30;5.03;;;4.20;99.90;;;;;;4163854;28;20034;-69
2022/01/08 02:16:37;;;;;;;9.77;5.13;;;4.30;99.90;;;;;;4160874;28;20056;-69
2022/01/08 02:18:38;;;;;;;10.05;4.28;;;4.20;99.90;;;;;;4165223;28;20034;-69
2022/01/08 02:20:38;;;;;;;10.00;4.90;;;4.30;99.90;;;;;;4161983;28;20513;-69
2022/01/08 02:22:39;;;;;;;9.00;5.00;;;4.20;99.90;;;;;;4163307;28;20122;-69
2022/01/08 02:24:39;;;;;;;8.93;4.72;;;4.20;99.90;;;;;;4163695;28;20072;-69
2022/01/08 02:26:41;;;;;;;9.52;5.53;;;4.20;99.90;;;;;;4162608;28;20029;-69
2022/01/08 02:28:42;;;;;;;10.97;4.97;;;4.20;99.90;;;;;;4148302;28;20046;-69
2022/01/08 02:30:43;;;;;;;10.80;5.18;;;4.20;99.90;;;;;;4162801;28;20493;-69
2022/01/08 02:32:45;;;;;;;9.93;5.45;;;4.20;99.90;;;;;;4163424;28;20522;-69
2022/01/08 02:34:48;;;;;;;10.93;5.95;;;4.20;99.90;;;;;;4163904;28;20128;-69
2022/01/08 02:36:48;;;;;;;12.23;5.85;;;4.10;99.90;;;;;;4163770;28;20042;-69
2022/01/08 02:38:50;;;;;;;10.80;5.57;;;4.10;99.90;;;;;;4163788;28;20038;-69
2022/01/08 02:40:58;;;;;;;10.27;5.63;;;4.10;99.90;;;;;;4164061;28;20042;-68
2022/01/08 02:43:04;;;;;;;11.07;6.07;;;4.00;99.90;;;;;;4161809;28;20042;-69
2022/01/08 02:45:06;;;;;;;9.27;5.50;;;4.00;99.90;;;;;;4162615;28;20514;-69
2022/01/08 02:47:07;;;;;;;12.05;6.03;;;4.00;99.90;;;;;;4167001;28;20408;-69
2022/01/08 02:49:07;;;;;;;11.45;5.80;;;3.90;99.90;;;;;;4166906;28;20084;-68
2022/01/08 02:51:08;;;;;;;10.13;6.28;;;3.90;99.90;;;;;;4162754;28;20037;-69
2022/01/08 02:53:09;;;;;;;12.25;6.63;;;3.90;99.90;;;;;;4167339;28;20042;-69
2022/01/08 02:55:10;;;;;;;11.50;6.22;;;3.90;99.90;;;;;;4166242;28;20045;-71
2022/01/08 02:57:11;;;;;;;12.47;6.80;;;3.90;99.90;;;;;;4164784;28;20472;-69
2022/01/08 02:59:16;;;;;;;12.27;6.53;;;3.90;99.90;;;;;;4165019;28;20271;-69
2022/01/08 03:01:16;;;;;;;12.70;6.30;;;3.90;99.90;;;;;;4163700;28;20030;-69
2022/01/08 03:03:17;;;;;;;10.50;6.32;;;3.90;99.90;;;;;;4166935;28;20037;-69
2022/01/08 03:05:18;;;;;;;11.10;6.35;;;3.80;99.90;;;;;;4163312;28;20034;-69
2022/01/08 03:07:19;;;;;;;12.50;6.60;;;3.80;99.90;;;;;;4164537;28;20052;-69
2022/01/08 03:09:19;;;;;;;11.80;6.72;;;3.80;99.90;;;;;;4165798;28;20036;-69
2022/01/08 03:11:20;;;;;;;13.80;6.93;;;3.80;99.90;;;;;;4166185;28;20041;-69
2022/01/08 03:13:21;;;;;;;20.35;7.82;;;3.80;99.90;;;;;;4164334;28;20049;-69
2022/01/08 03:15:23;;;;;;;14.70;7.00;;;3.70;99.90;;;;;;4164124;28;20052;-69
2022/01/08 03:17:24;;;;;;;10.32;6.28;;;3.80;99.90;;;;;;4149649;28;20037;-69
2022/01/08 03:19:24;;;;;;;12.23;6.88;;;3.80;99.90;;;;;;4165866;28;20392;-69
2022/01/08 03:21:34;;;;;;;12.43;7.05;;;3.80;99.90;;;;;;4165460;28;20045;-68
2022/01/08 03:23:42;;;;;;;13.35;6.55;;;3.70;99.90;;;;;;4164774;28;20045;-69
2022/01/08 03:25:46;;;;;;;13.98;7.68;;;3.70;99.90;;;;;;4165839;28;20038;-69
2022/01/08 03:27:48;;;;;;;13.23;6.97;;;3.70;99.90;;;;;;4166355;28;20060;-69
2022/01/08 03:29:49;;;;;;;12.50;7.15;;;3.70;99.90;;;;;;4163179;28;20041;-69
2022/01/08 03:31:50;;;;;;;14.07;8.02;;;3.70;99.90;;;;;;4164381;28;20392;-69
2022/01/08 03:33:51;;;;;;;12.57;7.55;;;3.70;99.90;;;;;;4166184;28;20038;-69
2022/01/08 03:35:52;;;;;;;11.52;7.25;;;3.70;99.90;;;;;;4163942;28;20432;-69
2022/01/08 03:37:52;;;;;;;18.58;8.80;;;3.70;99.90;;;;;;4166499;28;20053;-68
2022/01/08 03:39:53;;;;;;;12.88;7.60;;;3.60;99.90;;;;;;4165220;28;20033;-69
2022/01/08 03:41:54;;;;;;;15.05;8.32;;;3.60;99.90;;;;;;4163703;28;20048;-69
2022/01/08 03:43:55;;;;;;;16.63;9.38;;;3.60;99.90;;;;;;4164548;28;20493;-69
2022/01/08 03:45:56;;;;;;;13.50;7.97;;;3.60;99.90;;;;;;4164042;28;20124;-69
2022/01/08 03:50:06;;;;;;;16.90;8.32;;;3.50;99.90;;;;;;4165900;28;20094;-69
2022/01/08 03:52:07;;;;;;;13.55;8.15;;;3.50;99.90;;;;;;4163094;28;20105;-69
2022/01/08 03:54:07;;;;;;;18.30;8.25;;;3.50;99.90;;;;;;4165377;28;20234;-69
2022/01/08 03:56:08;;;;;;;16.88;8.55;;;3.50;99.90;;;;;;4164344;28;20057;-69
2022/01/08 03:58:09;;;;;;;14.18;9.00;;;3.50;99.90;;;;;;4167653;28;20034;-67
2022/01/08 04:00:10;;;;;;;15.57;8.88;;;3.60;99.90;;;;;;4168538;28;20037;-69
2022/01/08 04:02:11;;;;;;;14.23;8.40;;;3.50;99.90;;;;;;4165256;28;20041;-68
2022/01/08 04:04:11;;;;;;;15.88;8.50;;;3.50;99.90;;;;;;4167301;28;20103;-68
2022/01/08 04:06:12;;;;;;;16.77;8.80;;;3.50;99.90;;;;;;4169819;28;20044;-68
2022/01/08 04:08:13;;;;;;;19.85;9.20;;;3.50;99.90;;;;;;4166533;28;20083;-69
2022/01/08 04:10:14;;;;;;;16.38;9.73;;;3.60;99.90;;;;;;4162342;28;20045;-69
2022/01/08 04:12:20;;;;;;;16.55;8.90;;;3.50;99.90;;;;;;4166920;28;20033;-69
2022/01/08 04:14:21;;;;;;;17.13;8.38;;;3.50;99.90;;;;;;4166172;28;20045;-69
2022/01/08 04:16:29;;;;;;;15.10;9.30;;;3.50;99.90;;;;;;4165213;28;20095;-68
2022/01/08 04:18:29;;;;;;;16.80;8.60;;;3.50;99.90;;;;;;4165729;28;20107;-69
2022/01/08 04:20:30;;;;;;;15.82;8.40;;;3.40;99.90;;;;;;4165606;28;20428;-69
2022/01/08 04:22:31;;;;;;;16.02;8.75;;;3.50;99.90;;;;;;4166376;28;20108;-69
2022/01/08 04:24:32;;;;;;;12.25;7.88;;;3.50;99.90;;;;;;4165752;28;20057;-69
2022/01/08 04:26:32;;;;;;;14.82;7.93;;;3.50;99.90;;;;;;4161552;28;20128;-69
2022/01/08 04:28:33;;;;;;;14.52;8.57;;;3.50;99.90;;;;;;4165752;28;20057;-69
2022/01/08 04:30:34;;;;;;;18.88;8.82;;;3.50;99.90;;;;;;4163486;28;20112;-69
2022/01/08 04:32:34;;;;;;;14.43;7.57;;;3.50;99.90;;;;;;4165789;28;20478;-69
2022/01/08 04:34:35;;;;;;;16.45;8.73;;;3.40;99.90;;;;;;4165415;28;20045;-69
2022/01/08 04:36:36;;;;;;;15.43;7.97;;;3.40;99.90;;;;;;4161869;28;20046;-69
2022/01/08 04:38:37;;;;;;;10.80;7.20;;;3.50;99.90;;;;;;4164725;28;20037;-69
2022/01/08 04:40:38;;;;;;;14.77;7.50;;;3.50;99.90;;;;;;4161151;28;20034;-69
2022/01/08 04:42:39;;;;;;;16.95;7.80;;;3.50;99.90;;;;;;4164555;28;20034;-69
2022/01/08 04:44:40;;;;;;;19.15;7.93;;;3.50;99.90;;;;;;4163360;28;20033;-68
2022/01/08 04:46:41;;;;;;;11.88;7.80;;;3.50;99.90;;;;;;4163843;28;20033;-69
2022/01/08 04:48:42;;;;;;;14.30;7.35;;;3.50;99.90;;;;;;4163903;28;21465;-69
2022/01/08 04:50:42;;;;;;;13.50;7.03;;;3.50;99.90;;;;;;4165169;28;20049;-69
2022/01/08 04:52:43;;;;;;;16.73;7.65;;;3.50;99.90;;;;;;4164054;28;20064;-69
2022/01/08 04:54:43;;;;;;;16.48;7.63;;;3.50;99.90;;;;;;4162725;28;20088;-69
2022/01/08 04:56:44;;;;;;;11.93;7.07;;;3.50;99.90;;;;;;4164498;28;20051;-69
2022/01/08 04:58:44;;;;;;;15.85;6.90;;;3.50;99.90;;;;;;4164918;28;20041;-69
2022/01/08 05:00:45;;;;;;;14.73;7.05;;;3.40;99.90;;;;;;4164223;28;20033;-69
2022/01/08 05:02:46;;;;;;;13.55;6.82;;;3.40;99.90;;;;;;4161587;28;20472;-69
2022/01/08 05:04:47;;;;;;;17.48;8.02;;;3.40;99.90;;;;;;4164784;28;20034;-69
2022/01/08 05:06:48;;;;;;;11.70;7.13;;;3.40;99.90;;;;;;4164198;28;20546;-69
2022/01/08 05:08:48;;;;;;;13.82;7.68;;;3.40;99.90;;;;;;4163366;28;20045;-68
2022/01/08 05:10:49;;;;;;;14.60;7.75;;;3.30;99.90;;;;;;4163649;28;20457;-70
2022/01/08 05:12:49;;;;;;;14.05;7.00;;;3.40;99.90;;;;;;4164686;28;20037;-69
2022/01/08 05:14:50;;;;;;;14.02;6.97;;;3.40;99.90;;;;;;4163120;28;20374;-69
2022/01/08 05:16:59;;;;;;;16.02;6.75;;;3.40;99.90;;;;;;4160903;28;20392;-68
2022/01/08 05:19:00;;;;;;;13.27;6.85;;;3.40;99.90;;;;;;4162672;28;20132;-69
2022/01/08 05:21:13;;;;;;;12.95;7.72;;;3.40;99.90;;;;;;4163908;28;20042;-69
2022/01/08 05:23:14;;;;;;;12.40;7.43;;;3.40;99.90;;;;;;4160860;28;20055;-68
2022/01/08 05:25:16;;;;;;;14.00;7.45;;;3.40;99.90;;;;;;4162543;28;20061;-69
2022/01/08 05:27:17;;;;;;;15.98;7.15;;;3.40;99.90;;;;;;4163491;28;20126;-69
2022/01/08 05:29:18;;;;;;;14.57;6.80;;;3.40;99.90;;;;;;4161546;28;20029;-69
2022/01/08 05:31:21;;;;;;;14.70;6.90;;;3.40;99.90;;;;;;4163758;28;20064;-69
2022/01/08 05:33:22;;;;;;;15.77;7.60;;;3.40;99.90;;;;;;4163751;28;20088;-68
2022/01/08 05:35:23;;;;;;;12.57;6.68;;;3.40;99.90;;;;;;4159184;28;20041;-69
2022/01/08 05:37:24;;;;;;;15.80;7.30;;;3.40;99.90;;;;;;4163645;28;20473;-69
2022/01/08 05:39:25;;;;;;;13.48;7.18;;;3.40;99.90;;;;;;4164168;28;20075;-69
2022/01/08 05:41:26;;;;;;;13.98;7.03;;;3.40;99.90;;;;;;4162491;28;20038;-69
2022/01/08 05:43:26;;;;;;;12.73;7.30;;;3.40;99.90;;;;;;4163236;28;20038;-69
2022/01/08 05:45:27;;;;;;;16.40;6.85;;;3.40;99.90;;;;;;4160795;28;20115;-69
2022/01/08 05:47:30;;;;;;;11.73;6.65;;;3.40;99.90;;;;;;4163496;28;20119;-69
2022/01/08 05:49:32;;;;;;;12.57;6.78;;;3.40;99.90;;;;;;4163587;28;20029;-69
2022/01/08 05:51:32;;;;;;;12.77;6.35;;;3.40;99.90;;;;;;4158743;28;20025;-69
2022/01/08 05:53:33;;;;;;;10.13;6.45;;;3.40;99.90;;;;;;4160801;28;20096;-69
2022/01/08 05:55:33;;;;;;;14.32;6.25;;;3.40;99.90;;;;;;4160010;28;20501;-69
2022/01/08 05:57:34;;;;;;;10.98;6.50;;;3.30;99.90;;;;;;4159829;28;20084;-69
2022/01/08 05:59:35;;;;;;;13.95;7.15;;;3.30;99.90;;;;;;4163694;28;20420;-69
2022/01/08 06:01:36;;;;;;;13.88;7.22;;;3.30;99.90;;;;;;4161257;28;20049;-69
2022/01/08 06:03:36;;;;;;;14.73;6.57;;;3.30;99.90;;;;;;4162858;28;20393;-69
2022/01/08 06:05:37;;;;;;;11.57;6.75;;;3.30;99.90;;;;;;4162533;28;20030;-69
2022/01/08 06:07:37;;;;;;;13.10;6.55;;;3.30;99.90;;;;;;4163442;28;20132;-69
2022/01/08 06:09:38;;;;;;;11.75;6.38;;;3.30;99.90;;;;;;4162010;28;20503;-69
2022/01/08 06:11:38;;;;;;;12.68;5.88;;;3.20;99.90;;;;;;4162253;28;20465;-69
2022/01/08 06:13:39;;;;;;;12.18;5.90;;;3.30;99.90;;;;;;4162690;28;20053;-69
2022/01/08 06:15:40;;;;;;;13.63;6.78;;;3.20;99.90;;;;;;4163053;28;20042;-69
2022/01/08 06:17:41;;;;;;;13.70;6.28;;;3.20;99.90;;;;;;4162101;28;20045;-69
2022/01/08 06:19:41;;;;;;;12.50;6.55;;;3.20;99.90;;;;;;4163044;28;20037;-68
2022/01/08 06:21:42;;;;;;;12.77;6.55;;;3.10;99.90;;;;;;4165872;28;20087;-69
2022/01/08 06:23:43;;;;;;;14.77;5.82;;;3.20;99.90;;;;;;4165302;28;20152;-69
2022/01/08 06:25:43;;;;;;;13.50;5.72;;;3.10;99.90;;;;;;4166608;28;20033;-69
2022/01/08 06:27:44;;;;;;;13.68;5.50;;;3.10;99.90;;;;;;4169707;28;20049;-69
2022/01/08 06:29:45;;;;;;;12.32;5.32;;;3.10;99.90;;;;;;4167311;28;20083;-69
2022/01/08 06:31:46;;;;;;;10.20;5.38;;;3.10;99.90;;;;;;4167734;28;20037;-70
2022/01/08 06:33:47;;;;;;;16.27;6.32;;;3.10;99.90;;;;;;4157661;28;20057;-69
2022/01/08 06:35:51;;;;;;;11.05;6.28;;;3.00;99.90;;;;;;4166035;28;20038;-69
2022/01/08 06:37:51;;;;;;;12.52;5.95;;;3.00;99.90;;;;;;4167897;28;20080;-70
2022/01/08 06:39:52;;;;;;;14.43;5.93;;;3.00;99.90;;;;;;4172046;28;20033;-68
2022/01/08 06:41:53;;;;;;;13.23;5.90;;;3.00;99.90;;;;;;4170909;28;20050;-69
2022/01/08 06:43:53;;;;;;;12.32;6.28;;;3.00;99.90;;;;;;4169637;28;20120;-68
2022/01/08 06:45:54;;;;;;;13.82;5.97;;;2.90;99.90;;;;;;4166466;28;20477;-69
2022/01/08 06:47:54;;;;;;;10.68;5.55;;;2.90;99.90;;;;;;4169623;28;20036;-69
2022/01/08 06:49:55;;;;;;;12.00;5.32;;;2.90;99.90;;;;;;4167309;28;20527;-69
2022/01/08 06:51:56;;;;;;;10.80;5.60;;;2.90;99.90;;;;;;4168039;28;20473;-69
2022/01/08 06:53:56;;;;;;;10.27;5.28;;;2.90;99.90;;;;;;4166723;28;20033;-69
2022/01/08 06:55:57;;;;;;;7.97;4.97;;;2.90;99.90;;;;;;4167759;28;20037;-69
2022/01/08 06:57:59;;;;;;;11.65;5.78;;;2.90;99.90;;;;;;4168005;28;20060;-69
2022/01/08 07:00:02;;;;;;;9.75;4.93;;;2.90;99.90;;;;;;4165702;28;20038;-69
2022/01/08 07:02:03;;;;;;;9.85;5.35;;;2.90;99.90;;;;;;4169357;28;20038;-69
2022/01/08 07:04:04;;;;;;;11.65;5.45;;;2.90;99.90;;;;;;4166022;28;20052;-69
2022/01/08 07:06:04;;;;;;;11.70;5.15;;;2.90;99.90;;;;;;4167393;28;20037;-69
2022/01/08 07:08:06;;;;;;;10.43;4.93;;;2.90;99.90;;;;;;4168030;28;20426;-69
2022/01/08 07:10:07;;;;;;;14.50;6.00;;;3.00;99.90;;;;;;4166726;28;20045;-70
2022/01/08 07:12:08;;;;;;;11.45;6.03;;;3.00;99.90;;;;;;4167509;28;20045;-69
2022/01/08 07:14:08;;;;;;;16.02;6.07;;;3.00;99.90;;;;;;4170412;28;20511;-69
2022/01/08 07:16:09;;;;;;;10.25;4.82;;;2.90;99.90;;;;;;4166645;28;20069;-69
2022/01/08 07:18:09;;;;;;;8.85;5.25;;;3.00;99.90;;;;;;4167991;28;20033;-69
2022/01/08 07:20:10;;;;;;;17.17;6.25;;;2.90;99.90;;;;;;4170784;28;20096;-70
2022/01/08 07:22:11;;;;;;;13.90;5.50;;;3.00;99.90;;;;;;4167819;28;20042;-69
2022/01/08 07:24:12;;;;;;;12.52;5.65;;;2.90;99.90;;;;;;4167045;28;20041;-69
2022/01/08 07:26:12;;;;;;;10.00;5.20;;;2.80;99.90;;;;;;4167893;28;20030;-69
2022/01/08 07:28:13;;;;;;;12.40;5.72;;;2.90;99.90;;;;;;4173837;28;20041;-69
2022/01/08 07:30:13;;;;;;;9.65;5.30;;;3.00;99.90;;;;;;4168231;28;20474;-69
2022/01/08 07:32:14;;;;;;;11.00;5.78;;;3.00;99.90;;;;;;4169809;28;20041;-69
2022/01/08 07:34:15;;;;;;;12.90;6.40;;;3.00;99.90;;;;;;4164618;28;20049;-69
2022/01/08 07:36:19;;;;;;;11.23;5.78;;;2.90;99.90;;;;;;4168991;28;20068;-70
2022/01/08 07:38:19;;;;;;;11.23;6.35;;;2.90;99.90;;;;;;4170880;28;20041;-69
2022/01/08 07:40:21;;;;;;;13.90;5.85;;;2.90;99.90;;;;;;4169028;28;20040;-70
2022/01/08 07:42:21;;;;;;;15.27;6.38;;;2.90;99.90;;;;;;4169935;28;20030;-69
2022/01/08 07:44:22;;;;;;;10.93;5.63;;;2.90;99.90;;;;;;4166286;28;20037;-68
2022/01/08 07:46:23;;;;;;;12.30;6.28;;;3.00;99.90;;;;;;4166155;28;20042;-69
2022/01/08 07:48:23;;;;;;;13.50;6.13;;;3.00;99.90;;;;;;4168009;28;20465;-69
2022/01/08 07:50:24;;;;;;;12.85;6.45;;;3.00;99.90;;;;;;4166756;28;20034;-69
2022/01/08 07:52:24;;;;;;;11.85;6.35;;;3.00;99.90;;;;;;4168838;28;20034;-69
2022/01/08 07:54:25;;;;;;;11.77;6.65;;;3.00;99.90;;;;;;4168245;28;20038;-69
2022/01/08 07:56:26;;;;;;;10.90;6.95;;;3.00;99.90;;;;;;4166210;28;20056;-70
2022/01/08 07:58:26;;;;;;;14.35;7.43;;;3.00;99.90;;;;;;4170173;28;20042;-70
2022/01/08 08:00:27;;;;;;;14.20;7.80;;;3.00;99.90;;;;;;4170120;28;20033;-71
2022/01/08 08:02:28;;;;;;;17.98;7.63;;;3.00;99.90;;;;;;4167439;28;20038;-71
2022/01/08 08:04:28;;;;;;;12.40;7.22;;;2.90;99.90;;;;;;4154298;28;20120;-71
2022/01/08 08:06:29;;;;;;;16.25;7.78;;;2.90;99.90;;;;;;4167823;28;20044;-73
2022/01/08 08:08:30;;;;;;;15.90;8.18;;;3.00;99.90;;;;;;4158055;28;20487;-72
2022/01/08 08:10:31;;;;;;;14.88;8.48;;;2.90;99.90;;;;;;4167487;28;20052;-69
2022/01/08 08:12:31;;;;;;;24.88;10.98;;;2.90;99.90;;;;;;4164020;28;20086;-69
2022/01/08 08:14:32;;;;;;;20.20;10.10;;;2.90;99.90;;;;;;4167883;28;20045;-71
2022/01/08 08:16:33;;;;;;;18.00;10.18;;;3.00;99.90;;;;;;4155390;28;20037;-71
2022/01/08 08:18:33;;;;;;;20.92;12.40;;;3.00;99.90;;;;;;4154742;28;20061;-72
2022/01/08 08:20:34;;;;;;;24.45;12.90;;;3.00;99.90;;;;;;4167103;28;20694;-71
2022/01/08 08:22:35;;;;;;;26.17;13.93;;;3.00;99.90;;;;;;4166280;28;20052;-69
2022/01/08 08:24:35;;;;;;;24.17;13.25;;;3.00;99.90;;;;;;4165857;28;20141;-70
2022/01/08 08:26:36;;;;;;;25.70;14.25;;;3.00;99.90;;;;;;4166310;28;20030;-69
2022/01/08 08:28:37;;;;;;;25.85;15.50;;;3.00;99.90;;;;;;4166480;28;20042;-68
2022/01/08 08:30:37;;;;;;;25.23;13.82;;;2.90;99.90;;;;;;4159620;28;20547;-68
2022/01/08 08:32:38;;;;;;;27.42;15.05;;;2.90;99.90;;;;;;4163126;28;20137;-68
2022/01/08 08:34:39;;;;;;;26.13;14.15;;;2.90;99.90;;;;;;4160802;28;20041;-68
2022/01/08 08:36:40;;;;;;;23.63;13.48;;;2.90;99.90;;;;;;4162101;28;20029;-68
2022/01/08 08:38:40;;;;;;;30.02;15.00;;;3.00;99.90;;;;;;4161067;28;20038;-68
2022/01/08 08:40:41;;;;;;;25.67;14.50;;;3.10;99.90;;;;;;4159359;28;20476;-68
2022/01/08 08:42:42;;;;;;;21.20;12.27;;;3.00;99.90;;;;;;4163628;28;20539;-67
2022/01/08 08:44:43;;;;;;;24.92;14.05;;;3.10;99.90;;;;;;4162305;28;20520;-67
2022/01/08 08:46:44;;;;;;;28.25;13.43;;;3.10;99.90;;;;;;4159283;28;20249;-67
2022/01/08 08:48:44;;;;;;;24.52;12.98;;;3.20;99.90;;;;;;4162805;28;20083;-67
2022/01/08 08:50:45;;;;;;;21.98;12.07;;;3.20;99.90;;;;;;4164310;28;20038;-67
2022/01/08 08:52:46;;;;;;;23.95;12.98;;;3.20;99.90;;;;;;4163930;28;20041;-67
2022/01/08 08:54:47;;;;;;;20.60;11.60;;;3.20;99.90;;;;;;4161529;28;20045;-67
2022/01/08 08:56:48;;;;;;;19.73;11.80;;;3.30;99.90;;;;;;4160901;28;20045;-67
2022/01/08 08:58:49;;;;;;;22.23;12.10;;;3.30;99.90;;;;;;4162053;28;20548;-67
2022/01/08 09:00:49;;;;;;;22.48;12.05;;;3.30;99.90;;;;;;4160384;28;20068;-67
2022/01/08 09:02:50;;;;;;;22.25;12.48;;;3.30;99.90;;;;;;4167654;28;20036;-67
2022/01/08 09:04:51;;;;;;;23.95;11.48;;;3.20;99.90;;;;;;4167137;28;20057;-67
2022/01/08 09:06:51;;;;;;;20.52;11.82;;;3.30;99.90;;;;;;4163677;28;20045;-66
2022/01/08 09:08:53;;;;;;;21.55;11.40;;;3.30;99.90;;;;;;4164627;28;20058;-68
2022/01/08 09:10:54;;;;;;;19.02;12.80;;;3.20;99.90;;;;;;4161831;28;20709;-67
2022/01/08 09:12:55;;;;;;;21.00;12.02;;;3.20;99.90;;;;;;4163542;28;20029;-67
2022/01/08 09:14:55;;;;;;;25.63;14.00;;;3.20;99.90;;;;;;4162839;28;20042;-68
2022/01/08 09:17:00;;;;;;;20.83;11.90;;;3.30;99.90;;;;;;4162332;28;20107;-67
2022/01/08 09:19:01;;;;;;;20.33;11.80;;;3.20;99.90;;;;;;4162005;28;20052;-67
2022/01/08 09:21:02;;;;;;;27.25;13.27;;;3.30;99.90;;;;;;4162655;28;20439;-67
2022/01/08 09:23:04;;;;;;;23.67;12.50;;;3.20;99.90;;;;;;4162522;28;20046;-67
2022/01/08 09:25:05;;;;;;;23.58;13.63;;;3.30;99.90;;;;;;4164481;28;20037;-70
2022/01/08 09:27:06;;;;;;;20.63;13.25;;;3.30;99.90;;;;;;4162437;28;20040;-67
2022/01/08 09:29:07;;;;;;;27.02;14.30;;;3.30;99.90;;;;;;4163043;28;20480;-67
2022/01/08 09:31:07;;;;;;;25.50;13.82;;;3.30;99.90;;;;;;4162374;28;20053;-67
2022/01/08 09:33:08;;;;;;;23.75;13.50;;;3.30;99.90;;;;;;4160431;28;20048;-67
2022/01/08 09:35:09;;;;;;;26.38;13.75;;;3.30;99.90;;;;;;4161040;28;20033;-69
2022/01/08 09:37:11;;;;;;;26.40;14.80;;;3.30;99.90;;;;;;4162129;28;20476;-67
2022/01/08 09:39:11;;;;;;;25.48;14.30;;;3.40;99.90;;;;;;4165247;28;20162;-67
2022/01/08 09:41:12;;;;;;;23.67;12.88;;;3.40;99.90;;;;;;4160849;28;20041;-67
2022/01/08 09:43:13;;;;;;;25.83;14.20;;;3.40;99.90;;;;;;4163376;28;20475;-67
2022/01/08 09:45:14;;;;;;;22.45;13.50;;;3.40;99.90;;;;;;4161460;28;20037;-67
2022/01/08 09:47:14;;;;;;;28.60;14.90;;;3.50;99.90;;;;;;4163517;28;20096;-67
2022/01/08 09:49:15;;;;;;;24.35;13.07;;;3.50;99.90;;;;;;4163905;28;20034;-67
2022/01/08 09:51:17;;;;;;;27.23;14.30;;;3.50;99.90;;;;;;4163188;28;20044;-67
2022/01/08 09:53:18;;;;;;;28.98;14.98;;;3.60;99.90;;;;;;4163365;28;20045;-67
2022/01/08 09:55:18;;;;;;;25.60;14.65;;;3.60;99.90;;;;;;4164300;28;20043;-67
2022/01/08 09:57:19;;;;;;;21.25;13.25;;;3.60;99.90;;;;;;4166290;28;20044;-67
2022/01/08 09:59:21;;;;;;;24.85;14.15;;;3.70;99.90;;;;;;4163292;28;20380;-67
2022/01/08 10:01:33;;;;;;;25.33;14.52;;;3.70;99.90;;;;;;4163871;28;20041;-67
2022/01/08 10:03:34;;;;;;;25.05;14.05;;;3.70;99.90;;;;;;4160073;28;20040;-67
2022/01/08 10:05:44;;;;;;;26.50;14.38;;;3.70;99.90;;;;;;4161355;28;20116;-67
2022/01/08 10:07:59;;;;;;;34.33;14.98;;;3.70;99.90;;;;;;4145113;28;20041;-67
2022/01/08 10:10:02;;;;;;;41.63;15.60;;;3.80;99.90;;;;;;4163331;28;20502;-67
2022/01/08 10:12:04;;;;;;;31.02;15.00;;;3.80;99.90;;;;;;4144953;28;20285;-67
2022/01/08 10:14:15;;;;;;;25.42;14.60;;;3.80;99.90;;;;;;4160850;28;20172;-67
2022/01/08 10:18:39;;;;;;;32.25;14.82;;;3.80;99.90;;;;;;4160572;28;20053;-67
2022/01/08 10:20:40;;;;;;;26.70;14.68;;;3.80;99.90;;;;;;4160022;28;20033;-67
2022/01/08 10:22:41;;;;;;;32.42;14.98;;;3.80;99.90;;;;;;4163922;28;20117;-67
2022/01/08 10:24:42;;;;;;;27.23;14.57;;;3.90;99.90;;;;;;4163281;28;20037;-67
2022/01/08 10:26:45;;;;;;;25.83;13.50;;;3.90;99.90;;;;;;4161454;28;20235;-67
2022/01/08 10:28:52;;;;;;;30.27;15.35;;;3.90;99.90;;;;;;4161923;28;20041;-67
2022/01/08 10:30:55;;;;;;;28.67;13.73;;;4.00;99.90;;;;;;4163512;28;20052;-66
2022/01/08 10:32:57;;;;;;;31.85;14.55;;;4.00;99.90;;;;;;4159936;28;20045;-67
2022/01/08 10:34:58;;;;;;;25.48;13.57;;;4.00;99.90;;;;;;4162081;28;20083;-67
2022/01/08 10:37:04;;;;;;;26.13;14.38;;;4.00;99.90;;;;;;4162141;28;20150;-67
2022/01/08 10:39:33;;;;;;;25.80;12.05;;;4.00;99.90;;;;;;4159638;28;20038;-67
2022/01/08 10:41:39;;;;;;;27.63;13.27;;;4.10;99.90;;;;;;4141425;28;20044;-67
2022/01/08 10:43:40;;;;;;;29.75;13.73;;;4.00;99.90;;;;;;4160638;28;20052;-67
2022/01/08 10:45:40;;;;;;;24.15;13.20;;;4.00;99.90;;;;;;4162098;28;20043;-67
2022/01/08 10:47:42;;;;;;;29.58;13.40;;;4.10;99.90;;;;;;4164367;28;20037;-67
2022/01/08 10:50:06;;;;;;;26.60;13.88;;;4.10;99.90;;;;;;4164324;28;20649;-67
2022/01/08 10:52:11;;;;;;;22.23;12.45;;;4.10;99.90;;;;;;4165554;28;20041;-67
2022/01/08 10:54:14;;;;;;;19.85;11.45;;;4.20;99.90;;;;;;4165289;28;20037;-66